sensor_id;sensor_type;location;lat;lon;timestamp;P1;durP1;ratioP1;P2;durP2;ratioP2
1679;SDS011;838;51.794;12.258;2022-09-24T00:01:13;5.13;;;3.67;;
1679;SDS011;838;51.794;12.258;2022-09-24T00:03:41;4.80;;;3.40;;
1679;SDS011;838;51.794;12.258;2022-09-24T00:06:10;5.17;;;3.53;;
1679;SDS011;838;51.794;12.258;2022-09-24T00:08:39;4.80;;;3.30;;
1679;SDS011;838;51.794;12.258;2022-09-24T00:11:06;4.63;;;3.90;;
1679;SDS011;838;51.794;12.258;2022-09-24T00:13:33;4.60;;;3.90;;
1679;SDS011;838;51.794;12.258;2022-09-24T00:16:03;7.50;;;3.90;;
1679;SDS011;838;51.794;12.258;2022-09-24T00:18:32;5.00;;;3.40;;
1679;SDS011;838;51.794;12.258;2022-09-24T00:20:59;4.57;;;3.40;;
1679;SDS011;838;51.794;12.258;2022-09-24T00:23:25;5.10;;;3.60;;
1679;SDS011;838;51.794;12.258;2022-09-24T00:25:51;5.53;;;4.00;;
1679;SDS011;838;51.794;12.258;2022-09-24T00:28:35;6.00;;;3.37;;
1679;SDS011;838;51.794;12.258;2022-09-24T00:31:05;5.00;;;3.97;;
1679;SDS011;838;51.794;12.258;2022-09-24T00:33:31;5.40;;;4.50;;
1679;SDS011;838;51.794;12.258;2022-09-24T00:36:02;5.20;;;4.03;;
1679;SDS011;838;51.794;12.258;2022-09-24T00:38:32;4.47;;;3.87;;
1679;SDS011;838;51.794;12.258;2022-09-24T00:40:59;5.07;;;4.10;;
1679;SDS011;838;51.794;12.258;2022-09-24T00:43:26;4.63;;;4.13;;
1679;SDS011;838;51.794;12.258;2022-09-24T00:46:15;10.00;;;4.50;;
1679;SDS011;838;51.794;12.258;2022-09-24T00:48:44;6.43;;;4.13;;
1679;SDS011;838;51.794;12.258;2022-09-24T00:51:12;5.17;;;4.30;;
1679;SDS011;838;51.794;12.258;2022-09-24T00:53:42;5.00;;;3.80;;
1679;SDS011;838;51.794;12.258;2022-09-24T00:56:10;5.67;;;4.63;;
1679;SDS011;838;51.794;12.258;2022-09-24T00:58:39;4.97;;;3.93;;
1679;SDS011;838;51.794;12.258;2022-09-24T01:01:09;6.90;;;4.40;;
1679;SDS011;838;51.794;12.258;2022-09-24T01:03:36;6.97;;;4.70;;
1679;SDS011;838;51.794;12.258;2022-09-24T01:06:05;5.00;;;4.20;;
1679;SDS011;838;51.794;12.258;2022-09-24T01:08:31;5.00;;;4.10;;
1679;SDS011;838;51.794;12.258;2022-09-24T01:16:11;5.33;;;4.80;;
1679;SDS011;838;51.794;12.258;2022-09-24T01:19:03;7.10;;;4.63;;
1679;SDS011;838;51.794;12.258;2022-09-24T01:21:57;4.80;;;3.63;;
1679;SDS011;838;51.794;12.258;2022-09-24T01:27:28;5.07;;;4.43;;
1679;SDS011;838;51.794;12.258;2022-09-24T01:30:24;6.50;;;5.10;;
1679;SDS011;838;51.794;12.258;2022-09-24T01:38:06;8.50;;;5.40;;
1679;SDS011;838;51.794;12.258;2022-09-24T01:40:36;6.17;;;4.30;;
1679;SDS011;838;51.794;12.258;2022-09-24T01:43:04;5.60;;;5.00;;
1679;SDS011;838;51.794;12.258;2022-09-24T01:45:33;8.40;;;5.00;;
1679;SDS011;838;51.794;12.258;2022-09-24T01:48:01;10.80;;;5.00;;
1679;SDS011;838;51.794;12.258;2022-09-24T01:50:30;7.17;;;5.20;;
1679;SDS011;838;51.794;12.258;2022-09-24T01:53:04;6.73;;;5.00;;
1679;SDS011;838;51.794;12.258;2022-09-24T01:55:42;7.57;;;5.20;;
1679;SDS011;838;51.794;12.258;2022-09-24T01:58:22;6.13;;;5.10;;
1679;SDS011;838;51.794;12.258;2022-09-24T02:00:55;6.23;;;5.13;;
1679;SDS011;838;51.794;12.258;2022-09-24T02:03:30;5.23;;;4.53;;
1679;SDS011;838;51.794;12.258;2022-09-24T02:06:06;5.03;;;4.53;;
1679;SDS011;838;51.794;12.258;2022-09-24T02:08:42;6.47;;;5.00;;
1679;SDS011;838;51.794;12.258;2022-09-24T02:11:14;6.30;;;5.70;;
1679;SDS011;838;51.794;12.258;2022-09-24T02:13:56;6.50;;;5.47;;
1679;SDS011;838;51.794;12.258;2022-09-24T02:16:39;8.80;;;5.33;;
1679;SDS011;838;51.794;12.258;2022-09-24T02:19:10;6.00;;;5.40;;
1679;SDS011;838;51.794;12.258;2022-09-24T02:21:37;8.07;;;5.90;;
1679;SDS011;838;51.794;12.258;2022-09-24T02:24:06;6.27;;;5.57;;
1679;SDS011;838;51.794;12.258;2022-09-24T02:26:45;6.60;;;5.90;;
1679;SDS011;838;51.794;12.258;2022-09-24T02:29:11;6.60;;;5.93;;
1679;SDS011;838;51.794;12.258;2022-09-24T02:31:38;6.40;;;5.57;;
1679;SDS011;838;51.794;12.258;2022-09-24T02:34:08;8.73;;;5.80;;
1679;SDS011;838;51.794;12.258;2022-09-24T02:36:54;6.63;;;5.90;;
1679;SDS011;838;51.794;12.258;2022-09-24T02:39:27;5.77;;;5.20;;
1679;SDS011;838;51.794;12.258;2022-09-24T02:41:53;8.33;;;5.37;;
1679;SDS011;838;51.794;12.258;2022-09-24T02:44:20;8.50;;;5.83;;
1679;SDS011;838;51.794;12.258;2022-09-24T02:46:46;5.80;;;4.73;;
1679;SDS011;838;51.794;12.258;2022-09-24T02:49:13;7.30;;;5.67;;
1679;SDS011;838;51.794;12.258;2022-09-24T02:51:39;8.50;;;5.10;;
1679;SDS011;838;51.794;12.258;2022-09-24T02:54:05;8.13;;;5.80;;
1679;SDS011;838;51.794;12.258;2022-09-24T02:56:31;6.33;;;5.20;;
1679;SDS011;838;51.794;12.258;2022-09-24T02:58:57;8.00;;;4.90;;
1679;SDS011;838;51.794;12.258;2022-09-24T03:01:25;5.80;;;4.87;;
1679;SDS011;838;51.794;12.258;2022-09-24T03:03:50;6.40;;;5.33;;
1679;SDS011;838;51.794;12.258;2022-09-24T03:06:16;6.23;;;5.10;;
1679;SDS011;838;51.794;12.258;2022-09-24T03:08:42;6.87;;;5.13;;
1679;SDS011;838;51.794;12.258;2022-09-24T03:11:08;5.97;;;4.77;;
1679;SDS011;838;51.794;12.258;2022-09-24T03:13:35;6.13;;;5.50;;
1679;SDS011;838;51.794;12.258;2022-09-24T03:16:01;9.20;;;5.20;;
1679;SDS011;838;51.794;12.258;2022-09-24T03:18:26;6.37;;;5.13;;
1679;SDS011;838;51.794;12.258;2022-09-24T03:20:56;7.23;;;5.40;;
1679;SDS011;838;51.794;12.258;2022-09-24T03:23:23;6.57;;;5.00;;
1679;SDS011;838;51.794;12.258;2022-09-24T03:25:49;7.93;;;5.50;;
1679;SDS011;838;51.794;12.258;2022-09-24T03:28:14;8.30;;;5.50;;
1679;SDS011;838;51.794;12.258;2022-09-24T03:30:41;5.87;;;5.27;;
1679;SDS011;838;51.794;12.258;2022-09-24T03:38:37;6.43;;;5.20;;
1679;SDS011;838;51.794;12.258;2022-09-24T03:41:04;6.30;;;5.07;;
1679;SDS011;838;51.794;12.258;2022-09-24T03:43:31;7.40;;;5.20;;
1679;SDS011;838;51.794;12.258;2022-09-24T03:45:57;6.10;;;5.50;;
1679;SDS011;838;51.794;12.258;2022-09-24T03:48:24;6.90;;;5.73;;
1679;SDS011;838;51.794;12.258;2022-09-24T03:50:50;10.27;;;6.20;;
1679;SDS011;838;51.794;12.258;2022-09-24T03:53:17;6.67;;;5.70;;
1679;SDS011;838;51.794;12.258;2022-09-24T03:56:01;7.80;;;5.57;;
1679;SDS011;838;51.794;12.258;2022-09-24T03:58:28;6.17;;;5.43;;
1679;SDS011;838;51.794;12.258;2022-09-24T04:00:55;10.63;;;6.20;;
1679;SDS011;838;51.794;12.258;2022-09-24T04:03:22;9.50;;;6.03;;
1679;SDS011;838;51.794;12.258;2022-09-24T04:05:48;6.83;;;5.97;;
1679;SDS011;838;51.794;12.258;2022-09-24T04:08:17;7.80;;;6.50;;
1679;SDS011;838;51.794;12.258;2022-09-24T04:10:44;7.67;;;6.50;;
1679;SDS011;838;51.794;12.258;2022-09-24T04:13:10;7.80;;;5.73;;
1679;SDS011;838;51.794;12.258;2022-09-24T04:15:36;8.83;;;6.73;;
1679;SDS011;838;51.794;12.258;2022-09-24T04:18:02;7.90;;;6.57;;
1679;SDS011;838;51.794;12.258;2022-09-24T04:20:28;6.97;;;5.97;;
1679;SDS011;838;51.794;12.258;2022-09-24T04:22:55;6.67;;;5.87;;
1679;SDS011;838;51.794;12.258;2022-09-24T04:25:23;8.13;;;6.77;;
1679;SDS011;838;51.794;12.258;2022-09-24T04:27:53;9.37;;;6.00;;
1679;SDS011;838;51.794;12.258;2022-09-24T04:30:20;7.93;;;6.50;;
1679;SDS011;838;51.794;12.258;2022-09-24T04:32:47;8.00;;;6.10;;
1679;SDS011;838;51.794;12.258;2022-09-24T04:35:15;5.90;;;5.30;;
1679;SDS011;838;51.794;12.258;2022-09-24T04:37:41;7.97;;;5.60;;
1679;SDS011;838;51.794;12.258;2022-09-24T04:40:07;5.90;;;5.30;;
1679;SDS011;838;51.794;12.258;2022-09-24T04:42:34;6.00;;;5.40;;
1679;SDS011;838;51.794;12.258;2022-09-24T04:44:59;6.57;;;5.87;;
1679;SDS011;838;51.794;12.258;2022-09-24T04:47:26;9.07;;;6.57;;
1679;SDS011;838;51.794;12.258;2022-09-24T04:49:51;8.83;;;6.80;;
1679;SDS011;838;51.794;12.258;2022-09-24T04:52:17;8.07;;;7.00;;
1679;SDS011;838;51.794;12.258;2022-09-24T04:54:43;9.40;;;7.80;;
1679;SDS011;838;51.794;12.258;2022-09-24T04:57:14;11.47;;;7.40;;
1679;SDS011;838;51.794;12.258;2022-09-24T04:59:41;9.47;;;8.10;;
1679;SDS011;838;51.794;12.258;2022-09-24T05:02:07;11.30;;;8.17;;
1679;SDS011;838;51.794;12.258;2022-09-24T05:04:36;9.03;;;7.63;;
1679;SDS011;838;51.794;12.258;2022-09-24T05:07:02;10.10;;;8.40;;
1679;SDS011;838;51.794;12.258;2022-09-24T05:09:28;9.30;;;7.20;;
1679;SDS011;838;51.794;12.258;2022-09-24T05:11:56;7.97;;;7.17;;
1679;SDS011;838;51.794;12.258;2022-09-24T05:14:22;9.27;;;7.40;;
1679;SDS011;838;51.794;12.258;2022-09-24T05:16:48;7.33;;;6.53;;
1679;SDS011;838;51.794;12.258;2022-09-24T05:19:14;7.97;;;6.50;;
1679;SDS011;838;51.794;12.258;2022-09-24T05:21:39;8.17;;;6.77;;
1679;SDS011;838;51.794;12.258;2022-09-24T05:24:05;9.10;;;8.10;;
1679;SDS011;838;51.794;12.258;2022-09-24T05:26:31;8.90;;;7.93;;
1679;SDS011;838;51.794;12.258;2022-09-24T05:29:15;10.20;;;8.13;;
1679;SDS011;838;51.794;12.258;2022-09-24T05:31:41;9.50;;;7.80;;
1679;SDS011;838;51.794;12.258;2022-09-24T05:34:07;15.03;;;12.77;;
1679;SDS011;838;51.794;12.258;2022-09-24T05:36:33;15.93;;;11.80;;
1679;SDS011;838;51.794;12.258;2022-09-24T05:38:59;10.20;;;8.20;;
1679;SDS011;838;51.794;12.258;2022-09-24T05:41:25;9.50;;;8.30;;
1679;SDS011;838;51.794;12.258;2022-09-24T05:43:50;9.20;;;8.20;;
1679;SDS011;838;51.794;12.258;2022-09-24T05:46:16;9.57;;;7.80;;
1679;SDS011;838;51.794;12.258;2022-09-24T05:48:42;10.73;;;7.50;;
1679;SDS011;838;51.794;12.258;2022-09-24T05:51:07;7.80;;;7.00;;
1679;SDS011;838;51.794;12.258;2022-09-24T05:53:33;9.50;;;7.80;;
1679;SDS011;838;51.794;12.258;2022-09-24T05:55:59;8.13;;;6.90;;
1679;SDS011;838;51.794;12.258;2022-09-24T05:58:25;9.60;;;7.67;;
1679;SDS011;838;51.794;12.258;2022-09-24T06:00:51;7.23;;;6.50;;
1679;SDS011;838;51.794;12.258;2022-09-24T06:03:17;7.30;;;6.50;;
1679;SDS011;838;51.794;12.258;2022-09-24T06:05:45;9.10;;;6.63;;
1679;SDS011;838;51.794;12.258;2022-09-24T06:08:16;7.10;;;6.40;;
1679;SDS011;838;51.794;12.258;2022-09-24T06:10:44;8.70;;;7.10;;
1679;SDS011;838;51.794;12.258;2022-09-24T06:13:11;13.27;;;7.80;;
1679;SDS011;838;51.794;12.258;2022-09-24T06:15:41;10.67;;;7.80;;
1679;SDS011;838;51.794;12.258;2022-09-24T06:18:08;9.47;;;8.43;;
1679;SDS011;838;51.794;12.258;2022-09-24T06:20:34;8.10;;;7.23;;
1679;SDS011;838;51.794;12.258;2022-09-24T06:23:00;11.50;;;8.47;;
1679;SDS011;838;51.794;12.258;2022-09-24T06:25:26;12.80;;;8.77;;
1679;SDS011;838;51.794;12.258;2022-09-24T06:27:53;10.13;;;9.07;;
1679;SDS011;838;51.794;12.258;2022-09-24T06:30:37;12.77;;;9.37;;
1679;SDS011;838;51.794;12.258;2022-09-24T06:33:04;11.47;;;9.00;;
1679;SDS011;838;51.794;12.258;2022-09-24T06:35:37;10.83;;;9.10;;
1679;SDS011;838;51.794;12.258;2022-09-24T06:38:04;11.73;;;9.73;;
1679;SDS011;838;51.794;12.258;2022-09-24T06:40:31;12.63;;;9.13;;
1679;SDS011;838;51.794;12.258;2022-09-24T06:42:57;11.20;;;9.43;;
1679;SDS011;838;51.794;12.258;2022-09-24T06:45:23;9.63;;;8.10;;
1679;SDS011;838;51.794;12.258;2022-09-24T06:47:56;12.43;;;8.57;;
1679;SDS011;838;51.794;12.258;2022-09-24T06:50:24;12.73;;;9.57;;
1679;SDS011;838;51.794;12.258;2022-09-24T06:52:51;10.57;;;9.50;;
1679;SDS011;838;51.794;12.258;2022-09-24T06:55:17;10.17;;;9.17;;
1679;SDS011;838;51.794;12.258;2022-09-24T06:57:43;13.70;;;9.90;;
1679;SDS011;838;51.794;12.258;2022-09-24T07:00:10;11.60;;;8.80;;
1679;SDS011;838;51.794;12.258;2022-09-24T07:02:37;9.40;;;8.40;;
1679;SDS011;838;51.794;12.258;2022-09-24T07:05:03;12.83;;;8.07;;
1679;SDS011;838;51.794;12.258;2022-09-24T07:07:29;10.47;;;8.93;;
1679;SDS011;838;51.794;12.258;2022-09-24T07:09:57;8.83;;;7.63;;
1679;SDS011;838;51.794;12.258;2022-09-24T07:12:25;9.03;;;7.57;;
1679;SDS011;838;51.794;12.258;2022-09-24T07:14:53;11.37;;;8.70;;
1679;SDS011;838;51.794;12.258;2022-09-24T07:17:18;9.07;;;8.13;;
1679;SDS011;838;51.794;12.258;2022-09-24T07:19:44;7.93;;;7.13;;
1679;SDS011;838;51.794;12.258;2022-09-24T07:22:09;9.43;;;8.43;;
1679;SDS011;838;51.794;12.258;2022-09-24T07:24:35;9.50;;;8.50;;
1679;SDS011;838;51.794;12.258;2022-09-24T07:27:02;8.70;;;7.50;;
1679;SDS011;838;51.794;12.258;2022-09-24T07:29:29;8.40;;;7.60;;
1679;SDS011;838;51.794;12.258;2022-09-24T07:31:55;8.77;;;7.93;;
1679;SDS011;838;51.794;12.258;2022-09-24T07:34:20;10.70;;;8.00;;
1679;SDS011;838;51.794;12.258;2022-09-24T07:36:46;9.77;;;7.30;;
1679;SDS011;838;51.794;12.258;2022-09-24T07:39:12;8.77;;;7.40;;
1679;SDS011;838;51.794;12.258;2022-09-24T07:41:38;8.83;;;6.60;;
1679;SDS011;838;51.794;12.258;2022-09-24T07:44:05;8.93;;;7.40;;
1679;SDS011;838;51.794;12.258;2022-09-24T07:46:31;8.93;;;7.60;;
1679;SDS011;838;51.794;12.258;2022-09-24T07:48:57;10.77;;;7.13;;
1679;SDS011;838;51.794;12.258;2022-09-24T07:51:26;10.73;;;7.10;;
1679;SDS011;838;51.794;12.258;2022-09-24T07:53:53;7.17;;;6.43;;
1679;SDS011;838;51.794;12.258;2022-09-24T07:56:20;8.20;;;7.30;;
1679;SDS011;838;51.794;12.258;2022-09-24T07:58:47;7.53;;;6.57;;
1679;SDS011;838;51.794;12.258;2022-09-24T08:01:14;10.13;;;6.93;;
1679;SDS011;838;51.794;12.258;2022-09-24T08:03:41;7.30;;;6.30;;
1679;SDS011;838;51.794;12.258;2022-09-24T08:06:07;6.53;;;5.93;;
1679;SDS011;838;51.794;12.258;2022-09-24T08:08:33;7.47;;;6.03;;
1679;SDS011;838;51.794;12.258;2022-09-24T08:11:03;7.10;;;5.30;;
1679;SDS011;838;51.794;12.258;2022-09-24T08:13:29;6.30;;;5.40;;
1679;SDS011;838;51.794;12.258;2022-09-24T08:15:56;9.00;;;5.80;;
1679;SDS011;838;51.794;12.258;2022-09-24T08:18:23;8.73;;;5.70;;
1679;SDS011;838;51.794;12.258;2022-09-24T08:20:49;6.80;;;5.60;;
1679;SDS011;838;51.794;12.258;2022-09-24T08:23:14;9.13;;;6.17;;
1679;SDS011;838;51.794;12.258;2022-09-24T08:25:40;6.80;;;5.40;;
1679;SDS011;838;51.794;12.258;2022-09-24T08:28:06;7.20;;;6.07;;
1679;SDS011;838;51.794;12.258;2022-09-24T08:30:33;7.27;;;5.40;;
1679;SDS011;838;51.794;12.258;2022-09-24T08:32:59;7.40;;;5.60;;
1679;SDS011;838;51.794;12.258;2022-09-24T08:35:25;7.00;;;5.70;;
1679;SDS011;838;51.794;12.258;2022-09-24T08:37:54;7.83;;;5.60;;
1679;SDS011;838;51.794;12.258;2022-09-24T08:40:21;6.60;;;5.60;;
1679;SDS011;838;51.794;12.258;2022-09-24T08:42:50;6.23;;;5.60;;
1679;SDS011;838;51.794;12.258;2022-09-24T08:45:24;5.90;;;4.87;;
1679;SDS011;838;51.794;12.258;2022-09-24T08:48:10;5.27;;;4.50;;
1679;SDS011;838;51.794;12.258;2022-09-24T08:50:48;6.37;;;5.43;;
1679;SDS011;838;51.794;12.258;2022-09-24T08:53:26;5.13;;;4.33;;
1679;SDS011;838;51.794;12.258;2022-09-24T08:56:23;5.80;;;4.40;;
1679;SDS011;838;51.794;12.258;2022-09-24T08:59:04;6.27;;;4.63;;
1679;SDS011;838;51.794;12.258;2022-09-24T09:01:44;5.43;;;4.57;;
1679;SDS011;838;51.794;12.258;2022-09-24T09:07:20;5.47;;;4.27;;
1679;SDS011;838;51.794;12.258;2022-09-24T09:09:55;7.10;;;4.70;;
1679;SDS011;838;51.794;12.258;2022-09-24T09:12:36;7.60;;;4.60;;
1679;SDS011;838;51.794;12.258;2022-09-24T09:15:13;5.70;;;4.40;;
1679;SDS011;838;51.794;12.258;2022-09-24T09:17:44;6.50;;;4.93;;
1679;SDS011;838;51.794;12.258;2022-09-24T09:20:20;7.40;;;4.20;;
1679;SDS011;838;51.794;12.258;2022-09-24T09:22:49;6.23;;;4.50;;
1679;SDS011;838;51.794;12.258;2022-09-24T09:25:21;6.73;;;4.50;;
1679;SDS011;838;51.794;12.258;2022-09-24T09:27:50;5.97;;;5.00;;
1679;SDS011;838;51.794;12.258;2022-09-24T09:30:25;7.03;;;5.10;;
1679;SDS011;838;51.794;12.258;2022-09-24T09:38:28;4.57;;;3.97;;
1679;SDS011;838;51.794;12.258;2022-09-24T09:44:15;7.43;;;5.33;;
1679;SDS011;838;51.794;12.258;2022-09-24T09:49:49;5.70;;;4.23;;
1679;SDS011;838;51.794;12.258;2022-09-24T09:52:20;7.23;;;4.80;;
1679;SDS011;838;51.794;12.258;2022-09-24T09:54:48;5.93;;;4.57;;
1679;SDS011;838;51.794;12.258;2022-09-24T09:57:15;5.40;;;4.23;;
1679;SDS011;838;51.794;12.258;2022-09-24T09:59:45;5.47;;;4.63;;
1679;SDS011;838;51.794;12.258;2022-09-24T10:02:31;8.13;;;6.50;;
1679;SDS011;838;51.794;12.258;2022-09-24T10:05:02;9.90;;;4.43;;
1679;SDS011;838;51.794;12.258;2022-09-24T10:07:30;5.77;;;4.40;;
1679;SDS011;838;51.794;12.258;2022-09-24T10:12:26;6.80;;;4.30;;
1679;SDS011;838;51.794;12.258;2022-09-24T10:15:36;5.60;;;3.93;;
1679;SDS011;838;51.794;12.258;2022-09-24T10:17:43;4.30;;;3.60;;
1679;SDS011;838;51.794;12.258;2022-09-24T10:20:21;6.90;;;5.10;;
1679;SDS011;838;51.794;12.258;2022-09-24T10:22:52;4.97;;;4.20;;
1679;SDS011;838;51.794;12.258;2022-09-24T10:25:23;5.53;;;4.10;;
1679;SDS011;838;51.794;12.258;2022-09-24T10:28:00;4.47;;;3.70;;
1679;SDS011;838;51.794;12.258;2022-09-24T10:30:53;6.00;;;4.13;;
1679;SDS011;838;51.794;12.258;2022-09-24T10:33:22;6.63;;;4.00;;
1679;SDS011;838;51.794;12.258;2022-09-24T10:35:48;4.80;;;3.87;;
1679;SDS011;838;51.794;12.258;2022-09-24T10:38:16;5.40;;;4.47;;
1679;SDS011;838;51.794;12.258;2022-09-24T10:40:45;5.10;;;4.40;;
1679;SDS011;838;51.794;12.258;2022-09-24T10:43:15;5.53;;;4.20;;
1679;SDS011;838;51.794;12.258;2022-09-24T10:48:31;5.83;;;3.87;;
1679;SDS011;838;51.794;12.258;2022-09-24T10:56:50;4.73;;;3.50;;
1679;SDS011;838;51.794;12.258;2022-09-24T11:04:50;5.13;;;4.00;;
1679;SDS011;838;51.794;12.258;2022-09-24T11:13:13;5.10;;;3.13;;
1679;SDS011;838;51.794;12.258;2022-09-24T11:49:31;4.00;;;2.30;;
1679;SDS011;838;51.794;12.258;2022-09-24T11:52:34;4.10;;;2.30;;
1679;SDS011;838;51.794;12.258;2022-09-24T11:55:27;4.17;;;2.20;;
1679;SDS011;838;51.794;12.258;2022-09-24T11:58:09;4.30;;;2.27;;
1679;SDS011;838;51.794;12.258;2022-09-24T12:00:47;3.40;;;2.10;;
1679;SDS011;838;51.794;12.258;2022-09-24T12:03:41;4.10;;;2.10;;
1679;SDS011;838;51.794;12.258;2022-09-24T12:06:09;5.50;;;2.60;;
1679;SDS011;838;51.794;12.258;2022-09-24T12:08:53;3.53;;;2.87;;
1679;SDS011;838;51.794;12.258;2022-09-24T12:11:52;4.50;;;2.23;;
1679;SDS011;838;51.794;12.258;2022-09-24T12:14:25;3.83;;;2.87;;
1679;SDS011;838;51.794;12.258;2022-09-24T12:16:57;3.77;;;2.70;;
1679;SDS011;838;51.794;12.258;2022-09-24T12:19:31;3.60;;;2.60;;
1679;SDS011;838;51.794;12.258;2022-09-24T12:22:02;3.30;;;2.47;;
1679;SDS011;838;51.794;12.258;2022-09-24T12:26:59;4.33;;;2.97;;
1679;SDS011;838;51.794;12.258;2022-09-24T12:37:42;5.40;;;3.10;;
1679;SDS011;838;51.794;12.258;2022-09-24T12:42:55;4.07;;;3.03;;
1679;SDS011;838;51.794;12.258;2022-09-24T12:45:23;4.50;;;2.97;;
1679;SDS011;838;51.794;12.258;2022-09-24T12:47:59;4.30;;;3.43;;
1679;SDS011;838;51.794;12.258;2022-09-24T12:50:27;4.83;;;2.50;;
1679;SDS011;838;51.794;12.258;2022-09-24T12:52:55;4.17;;;3.10;;
1679;SDS011;838;51.794;12.258;2022-09-24T13:01:03;3.00;;;2.30;;
1679;SDS011;838;51.794;12.258;2022-09-24T13:03:36;3.87;;;2.60;;
1679;SDS011;838;51.794;12.258;2022-09-24T13:06:17;3.90;;;2.50;;
1679;SDS011;838;51.794;12.258;2022-09-24T13:08:46;3.47;;;2.60;;
1679;SDS011;838;51.794;12.258;2022-09-24T13:11:25;3.17;;;2.50;;
1679;SDS011;838;51.794;12.258;2022-09-24T13:16:37;3.20;;;2.30;;
1679;SDS011;838;51.794;12.258;2022-09-24T13:19:04;2.90;;;2.13;;
1679;SDS011;838;51.794;12.258;2022-09-24T13:21:58;5.50;;;2.50;;
1679;SDS011;838;51.794;12.258;2022-09-24T13:24:25;6.50;;;2.40;;
1679;SDS011;838;51.794;12.258;2022-09-24T13:29:45;4.10;;;1.90;;
1679;SDS011;838;51.794;12.258;2022-09-24T13:32:17;2.90;;;2.03;;
1679;SDS011;838;51.794;12.258;2022-09-24T13:34:45;2.73;;;1.73;;
1679;SDS011;838;51.794;12.258;2022-09-24T13:37:32;9.30;;;3.00;;
1679;SDS011;838;51.794;12.258;2022-09-24T13:40:05;2.83;;;2.00;;
1679;SDS011;838;51.794;12.258;2022-09-24T13:42:59;3.77;;;1.67;;
1679;SDS011;838;51.794;12.258;2022-09-24T13:45:29;3.70;;;2.43;;
1679;SDS011;838;51.794;12.258;2022-09-24T13:50:34;5.93;;;2.30;;
1679;SDS011;838;51.794;12.258;2022-09-24T13:55:45;3.37;;;2.13;;
1679;SDS011;838;51.794;12.258;2022-09-24T13:58:33;3.47;;;1.83;;
1679;SDS011;838;51.794;12.258;2022-09-24T14:01:01;2.80;;;1.77;;
1679;SDS011;838;51.794;12.258;2022-09-24T14:05:57;3.33;;;2.20;;
1679;SDS011;838;51.794;12.258;2022-09-24T14:08:23;4.60;;;2.33;;
1679;SDS011;838;51.794;12.258;2022-09-24T14:10:52;2.50;;;1.63;;
1679;SDS011;838;51.794;12.258;2022-09-24T14:13:32;4.40;;;2.20;;
1679;SDS011;838;51.794;12.258;2022-09-24T14:16:09;2.50;;;1.60;;
1679;SDS011;838;51.794;12.258;2022-09-24T14:18:45;4.60;;;2.20;;
1679;SDS011;838;51.794;12.258;2022-09-24T14:21:22;3.00;;;2.00;;
1679;SDS011;838;51.794;12.258;2022-09-24T14:24:05;3.37;;;1.70;;
1679;SDS011;838;51.794;12.258;2022-09-24T14:26:43;2.60;;;2.07;;
1679;SDS011;838;51.794;12.258;2022-09-24T14:29:14;3.33;;;1.43;;
1679;SDS011;838;51.794;12.258;2022-09-24T14:31:51;2.90;;;1.80;;
1679;SDS011;838;51.794;12.258;2022-09-24T14:34:24;3.60;;;2.27;;
1679;SDS011;838;51.794;12.258;2022-09-24T14:36:51;7.03;;;2.30;;
1679;SDS011;838;51.794;12.258;2022-09-24T14:39:19;2.93;;;1.83;;
1679;SDS011;838;51.794;12.258;2022-09-24T14:41:50;2.60;;;1.50;;
1679;SDS011;838;51.794;12.258;2022-09-24T14:46:55;2.83;;;1.90;;
1679;SDS011;838;51.794;12.258;2022-09-24T14:49:23;3.00;;;1.80;;
1679;SDS011;838;51.794;12.258;2022-09-24T14:52:20;3.80;;;2.00;;
1679;SDS011;838;51.794;12.258;2022-09-24T14:57:36;4.40;;;2.00;;
1679;SDS011;838;51.794;12.258;2022-09-24T15:00:16;2.80;;;2.00;;
1679;SDS011;838;51.794;12.258;2022-09-24T15:05:27;2.83;;;1.70;;
1679;SDS011;838;51.794;12.258;2022-09-24T15:11:03;2.43;;;1.60;;
1679;SDS011;838;51.794;12.258;2022-09-24T15:13:31;2.90;;;1.53;;
1679;SDS011;838;51.794;12.258;2022-09-24T15:16:06;2.50;;;1.67;;
1679;SDS011;838;51.794;12.258;2022-09-24T15:18:57;2.83;;;1.67;;
1679;SDS011;838;51.794;12.258;2022-09-24T15:21:41;3.00;;;1.90;;
1679;SDS011;838;51.794;12.258;2022-09-24T15:24:07;2.97;;;1.73;;
1679;SDS011;838;51.794;12.258;2022-09-24T15:26:34;2.80;;;1.77;;
1679;SDS011;838;51.794;12.258;2022-09-24T15:29:03;3.07;;;1.73;;
1679;SDS011;838;51.794;12.258;2022-09-24T15:31:30;3.17;;;1.90;;
1679;SDS011;838;51.794;12.258;2022-09-24T15:33:55;2.30;;;1.40;;
1679;SDS011;838;51.794;12.258;2022-09-24T15:36:21;2.83;;;1.83;;
1679;SDS011;838;51.794;12.258;2022-09-24T15:38:48;4.03;;;1.80;;
1679;SDS011;838;51.794;12.258;2022-09-24T15:41:16;3.37;;;1.80;;
1679;SDS011;838;51.794;12.258;2022-09-24T15:43:43;4.37;;;1.90;;
1679;SDS011;838;51.794;12.258;2022-09-24T15:46:09;3.07;;;2.00;;
1679;SDS011;838;51.794;12.258;2022-09-24T15:48:34;5.40;;;2.53;;
1679;SDS011;838;51.794;12.258;2022-09-24T15:51:00;4.93;;;2.17;;
1679;SDS011;838;51.794;12.258;2022-09-24T15:53:27;2.60;;;1.60;;
1679;SDS011;838;51.794;12.258;2022-09-24T15:55:55;4.77;;;2.37;;
1679;SDS011;838;51.794;12.258;2022-09-24T15:58:23;3.60;;;2.20;;
1679;SDS011;838;51.794;12.258;2022-09-24T16:00:49;2.70;;;1.80;;
1679;SDS011;838;51.794;12.258;2022-09-24T16:03:16;3.77;;;1.90;;
1679;SDS011;838;51.794;12.258;2022-09-24T16:05:50;3.33;;;1.90;;
1679;SDS011;838;51.794;12.258;2022-09-24T16:08:16;3.10;;;1.80;;
1679;SDS011;838;51.794;12.258;2022-09-24T16:10:42;3.87;;;2.17;;
1679;SDS011;838;51.794;12.258;2022-09-24T16:13:11;2.77;;;1.87;;
1679;SDS011;838;51.794;12.258;2022-09-24T16:15:38;3.70;;;1.77;;
1679;SDS011;838;51.794;12.258;2022-09-24T16:18:04;2.93;;;2.23;;
1679;SDS011;838;51.794;12.258;2022-09-24T16:20:31;4.33;;;2.37;;
1679;SDS011;838;51.794;12.258;2022-09-24T16:22:57;2.93;;;2.30;;
1679;SDS011;838;51.794;12.258;2022-09-24T16:25:23;5.40;;;2.30;;
1679;SDS011;838;51.794;12.258;2022-09-24T16:27:49;3.30;;;2.40;;
1679;SDS011;838;51.794;12.258;2022-09-24T16:30:15;3.30;;;2.20;;
1679;SDS011;838;51.794;12.258;2022-09-24T16:32:41;3.70;;;2.90;;
1679;SDS011;838;51.794;12.258;2022-09-24T16:35:07;5.70;;;3.37;;
1679;SDS011;838;51.794;12.258;2022-09-24T16:37:35;3.80;;;2.70;;
1679;SDS011;838;51.794;12.258;2022-09-24T16:40:01;4.23;;;2.43;;
1679;SDS011;838;51.794;12.258;2022-09-24T16:42:27;3.30;;;2.50;;
1679;SDS011;838;51.794;12.258;2022-09-24T16:44:52;3.70;;;2.17;;
1679;SDS011;838;51.794;12.258;2022-09-24T16:47:18;4.60;;;2.40;;
1679;SDS011;838;51.794;12.258;2022-09-24T16:49:44;3.83;;;2.10;;
1679;SDS011;838;51.794;12.258;2022-09-24T16:52:11;2.77;;;1.90;;
1679;SDS011;838;51.794;12.258;2022-09-24T16:54:37;6.80;;;2.63;;
1679;SDS011;838;51.794;12.258;2022-09-24T16:57:03;4.63;;;3.77;;
1679;SDS011;838;51.794;12.258;2022-09-24T16:59:30;6.00;;;3.90;;
1679;SDS011;838;51.794;12.258;2022-09-24T17:01:56;5.73;;;3.90;;
1679;SDS011;838;51.794;12.258;2022-09-24T17:04:23;4.70;;;2.50;;
1679;SDS011;838;51.794;12.258;2022-09-24T17:06:51;4.27;;;3.30;;
1679;SDS011;838;51.794;12.258;2022-09-24T17:09:18;4.10;;;2.80;;
1679;SDS011;838;51.794;12.258;2022-09-24T17:12:02;4.40;;;2.70;;
1679;SDS011;838;51.794;12.258;2022-09-24T17:14:28;6.40;;;3.27;;
1679;SDS011;838;51.794;12.258;2022-09-24T17:16:53;5.83;;;3.30;;
1679;SDS011;838;51.794;12.258;2022-09-24T17:19:19;5.30;;;3.97;;
1679;SDS011;838;51.794;12.258;2022-09-24T17:21:45;4.20;;;3.20;;
1679;SDS011;838;51.794;12.258;2022-09-24T17:24:14;4.80;;;3.07;;
1679;SDS011;838;51.794;12.258;2022-09-24T17:26:40;3.80;;;2.70;;
1679;SDS011;838;51.794;12.258;2022-09-24T17:29:06;6.00;;;3.27;;
1679;SDS011;838;51.794;12.258;2022-09-24T17:31:31;4.23;;;3.00;;
1679;SDS011;838;51.794;12.258;2022-09-24T17:33:58;4.03;;;2.83;;
1679;SDS011;838;51.794;12.258;2022-09-24T17:36:29;4.00;;;2.93;;
1679;SDS011;838;51.794;12.258;2022-09-24T17:38:56;5.30;;;2.90;;
1679;SDS011;838;51.794;12.258;2022-09-24T17:41:24;5.23;;;3.60;;
1679;SDS011;838;51.794;12.258;2022-09-24T17:43:53;7.73;;;2.97;;
1679;SDS011;838;51.794;12.258;2022-09-24T17:46:24;4.30;;;3.30;;